createdAt,value
2023-04-24T00:01:02.243Z,84.86
2023-04-24T00:03:30.466Z,84.84
2023-04-24T00:06:00.153Z,85.04
2023-04-24T00:08:28.252Z,85.09
2023-04-24T00:10:56.235Z,84.98
2023-04-24T00:13:25.995Z,84.84
2023-04-24T00:15:54.531Z,84.03
2023-04-24T00:18:22.651Z,83.58
2023-04-24T00:20:50.580Z,85.13
2023-04-24T00:23:18.554Z,85.17
2023-04-24T00:25:46.494Z,84.00
2023-04-24T00:28:14.456Z,83.59
2023-04-24T00:30:43.802Z,84.72
2023-04-24T00:33:11.694Z,84.33
2023-04-24T00:35:39.594Z,83.96
2023-04-24T00:38:07.536Z,84.66
2023-04-24T00:40:35.652Z,83.69
2023-04-24T00:43:03.617Z,83.47
2023-04-24T00:45:32.362Z,83.41
2023-04-24T00:48:02.877Z,84.67
2023-04-24T00:50:31.567Z,83.85
2023-04-24T00:52:59.622Z,84.14
2023-04-24T00:55:28.119Z,83.36
2023-04-24T00:57:56.393Z,84.32
2023-04-24T01:00:24.838Z,84.01
2023-04-24T01:02:55.434Z,83.75
2023-04-24T01:05:24.986Z,84.64
2023-04-24T01:07:52.950Z,84.12
2023-04-24T01:10:21.491Z,83.04
2023-04-24T01:12:49.391Z,81.93
2023-04-24T01:15:17.565Z,83.74
2023-04-24T01:17:46.234Z,82.12
2023-04-24T01:20:15.526Z,82.88
2023-04-24T01:22:45.061Z,81.95
2023-04-24T01:25:12.987Z,82.62
2023-04-24T01:27:41.047Z,82.16
2023-04-24T01:30:10.690Z,81.62
2023-04-24T01:32:39.885Z,81.16
2023-04-24T01:35:09.481Z,82.13
2023-04-24T01:37:38.397Z,82.86
2023-04-24T01:40:09.472Z,82.74
2023-04-24T01:42:37.905Z,83.52
2023-04-24T01:45:07.460Z,84.59
2023-04-24T01:47:35.433Z,83.42
2023-04-24T01:50:03.396Z,83.08
2023-04-24T01:52:32.312Z,82.23
2023-04-24T01:55:02.163Z,84.30
2023-04-24T01:57:32.508Z,84.55
2023-04-24T02:00:00.650Z,85.25
2023-04-24T02:02:29.974Z,84.73
2023-04-24T02:04:58.099Z,85.27
2023-04-24T02:07:26.145Z,84.30
2023-04-24T02:09:54.110Z,85.62
2023-04-24T02:12:22.032Z,84.22
2023-04-24T02:14:51.359Z,84.32
2023-04-24T02:17:20.299Z,86.60
2023-04-24T02:19:48.247Z,86.26
2023-04-24T02:22:16.236Z,87.15
2023-04-24T02:24:44.178Z,87.96
2023-04-24T02:27:12.550Z,88.63
2023-04-24T02:29:40.694Z,88.51
2023-04-24T02:32:12.998Z,88.35
2023-04-24T02:34:41.103Z,88.55
2023-04-24T02:37:09.064Z,88.84
2023-04-24T02:39:37.009Z,90.28
2023-04-24T02:42:05.077Z,89.01
2023-04-24T02:44:32.993Z,89.26
2023-04-24T02:47:01.083Z,88.75
2023-04-24T02:49:30.375Z,89.06
2023-04-24T02:51:58.264Z,89.33
2023-04-24T02:54:26.354Z,89.26
2023-04-24T02:56:54.268Z,89.54
2023-04-24T02:59:22.168Z,89.74
2023-04-24T03:01:50.118Z,90.61
2023-04-24T03:04:21.573Z,89.74
2023-04-24T03:06:52.823Z,91.54
2023-04-24T03:09:20.754Z,91.97
2023-04-24T03:11:49.650Z,90.79
2023-04-24T03:14:17.702Z,90.91
2023-04-24T03:16:45.768Z,91.91
2023-04-24T03:19:13.791Z,91.81
2023-04-24T03:21:42.131Z,91.43
2023-04-24T03:24:11.540Z,90.82
2023-04-24T03:26:39.459Z,91.82
2023-04-24T03:29:07.387Z,91.76
2023-04-24T03:31:35.428Z,90.19
2023-04-24T03:34:03.407Z,90.79
2023-04-24T03:36:31.613Z,89.88
2023-04-24T03:38:59.526Z,90.06
2023-04-24T03:41:28.810Z,90.40
2023-04-24T03:43:56.980Z,91.20
2023-04-24T03:46:25.131Z,94.53
2023-04-24T03:48:53.090Z,96.17
2023-04-24T03:51:21.021Z,97.32
2023-04-24T03:53:48.910Z,98.21
2023-04-24T03:56:16.848Z,98.35
2023-04-24T03:58:46.169Z,96.92
2023-04-24T04:01:14.338Z,95.87
2023-04-24T04:03:42.386Z,97.48
2023-04-24T04:06:12.191Z,97.83
2023-04-24T04:08:40.112Z,98.99
2023-04-24T04:11:08.067Z,98.29
2023-04-24T04:13:35.968Z,96.85
2023-04-24T04:16:05.409Z,95.39
2023-04-24T04:18:33.344Z,92.88
2023-04-24T04:21:02.406Z,90.62
2023-04-24T04:23:30.770Z,88.84
2023-04-24T04:25:58.717Z,90.31
2023-04-24T04:28:27.359Z,88.27
2023-04-24T04:30:56.356Z,86.98
2023-04-24T04:33:26.314Z,86.13
2023-04-24T04:35:54.493Z,82.77
2023-04-24T04:38:22.403Z,82.60
2023-04-24T04:40:50.875Z,80.88
2023-04-24T04:43:18.774Z,80.24
2023-04-24T04:45:46.764Z,78.97
2023-04-24T04:48:15.268Z,77.92
2023-04-24T04:50:44.582Z,77.09
2023-04-24T04:53:13.385Z,76.85
2023-04-24T04:55:41.414Z,75.32
2023-04-24T04:58:09.368Z,76.68
2023-04-24T05:00:38.482Z,76.05
2023-04-24T05:03:20.045Z,73.18
2023-04-24T05:05:50.476Z,73.30
2023-04-24T05:08:26.391Z,72.65
2023-04-24T05:10:54.913Z,71.88
2023-04-24T05:13:35.611Z,69.55
2023-04-24T05:16:07.740Z,69.77
2023-04-24T05:18:35.833Z,70.58
2023-04-24T05:21:05.342Z,69.70
2023-04-24T05:23:33.338Z,68.45
2023-04-24T05:26:01.292Z,66.59
2023-04-24T05:28:30.458Z,65.48
2023-04-24T05:30:58.955Z,64.85
2023-04-24T05:33:26.923Z,65.61
2023-04-24T05:35:54.849Z,63.40
2023-04-24T05:38:24.143Z,63.02
2023-04-24T05:40:52.082Z,64.04
2023-04-24T05:43:19.984Z,64.36
2023-04-24T05:45:47.896Z,62.02
2023-04-24T05:48:15.924Z,61.65
2023-04-24T05:50:44.826Z,63.29
2023-04-24T05:53:12.815Z,62.86
2023-04-24T05:55:42.737Z,61.14
2023-04-24T05:58:10.633Z,62.87
2023-04-24T06:00:38.832Z,59.26
2023-04-24T06:03:06.979Z,60.51
2023-04-24T06:05:35.148Z,55.35
2023-04-24T06:08:03.063Z,59.64
2023-04-24T06:10:31.045Z,59.42
2023-04-24T06:13:01.621Z,58.85
2023-04-24T06:15:31.378Z,55.65
2023-04-24T06:17:59.873Z,54.27
2023-04-24T06:20:28.387Z,54.32
2023-04-24T06:22:56.398Z,56.05
2023-04-24T06:25:24.403Z,55.96
2023-04-24T06:27:52.376Z,53.53
2023-04-24T06:30:21.680Z,52.57
2023-04-24T06:32:49.653Z,50.60
2023-04-24T06:35:17.732Z,52.56
2023-04-24T06:37:45.918Z,50.77
2023-04-24T06:40:14.046Z,52.44
2023-04-24T06:42:42.004Z,51.98
2023-04-24T06:45:10.311Z,51.24
2023-04-24T06:47:40.078Z,49.19
2023-04-24T06:50:09.395Z,50.12
2023-04-24T06:52:37.723Z,49.44
2023-04-24T06:55:06.858Z,48.79
2023-04-24T06:57:34.754Z,48.33
2023-04-24T07:00:02.982Z,46.40
2023-04-24T07:02:31.021Z,48.87
2023-04-24T07:05:00.379Z,47.97
2023-04-24T07:07:28.664Z,46.25
2023-04-24T07:09:57.398Z,47.87
2023-04-24T07:12:25.321Z,49.85
2023-04-24T07:14:53.288Z,44.60
2023-04-24T07:17:21.230Z,45.46
2023-04-24T07:19:49.145Z,44.23
2023-04-24T07:22:18.778Z,46.39
2023-04-24T07:24:46.866Z,45.74
2023-04-24T07:27:16.024Z,43.46
2023-04-24T07:29:44.847Z,44.01
2023-04-24T07:32:13.221Z,42.41
2023-04-24T07:34:41.567Z,43.51
2023-04-24T07:37:09.547Z,43.72
2023-04-24T07:39:38.853Z,44.40
2023-04-24T07:42:06.858Z,40.99
2023-04-24T07:44:34.771Z,41.25
2023-04-24T07:47:02.709Z,41.84
2023-04-24T07:49:30.641Z,38.17
2023-04-24T07:51:58.568Z,41.64
2023-04-24T07:54:26.505Z,41.91
2023-04-24T07:56:55.776Z,41.65
2023-04-24T07:59:23.692Z,41.29
2023-04-24T08:01:51.872Z,41.71
2023-04-24T08:04:20.118Z,41.42
2023-04-24T08:06:49.742Z,39.60
2023-04-24T08:09:17.795Z,42.13
2023-04-24T08:11:46.116Z,40.98
2023-04-24T08:14:16.051Z,40.75
2023-04-24T08:16:44.466Z,37.67
2023-04-24T08:19:12.581Z,39.98
2023-04-24T08:21:40.649Z,39.35
2023-04-24T08:24:09.536Z,39.00
2023-04-24T08:26:37.532Z,42.64
2023-04-24T08:29:05.507Z,40.44
2023-04-24T08:31:35.050Z,39.01
2023-04-24T08:34:03.256Z,41.04
2023-04-24T08:36:43.582Z,40.75
2023-04-24T08:39:15.364Z,39.43
2023-04-24T08:41:46.449Z,35.74
2023-04-24T08:44:17.148Z,38.33
2023-04-24T08:46:48.618Z,38.89
2023-04-24T08:49:17.771Z,40.68
2023-04-24T08:51:48.053Z,36.63
2023-04-24T08:54:16.054Z,35.03
2023-04-24T08:56:46.886Z,37.96
2023-04-24T08:59:16.361Z,36.23
2023-04-24T09:01:47.505Z,37.79
2023-04-24T09:04:19.165Z,37.88
2023-04-24T09:06:47.716Z,35.45
2023-04-24T09:09:17.230Z,35.90
2023-04-24T09:11:45.520Z,35.62
2023-04-24T09:14:13.736Z,38.04
2023-04-24T09:16:42.225Z,39.64
2023-04-24T09:19:11.702Z,39.25
2023-04-24T09:21:39.861Z,38.58
2023-04-24T09:24:10.895Z,37.51
2023-04-24T09:26:39.036Z,32.31
2023-04-24T09:29:06.962Z,38.86
2023-04-24T09:31:35.054Z,33.03
2023-04-24T09:34:08.235Z,33.59
2023-04-24T09:36:39.514Z,33.78
2023-04-24T09:39:09.414Z,34.22
2023-04-24T09:41:38.103Z,33.05
2023-04-24T09:44:14.312Z,35.20
2023-04-24T09:46:43.768Z,33.36
2023-04-24T09:49:14.377Z,33.28
2023-04-24T09:51:44.149Z,33.46
2023-04-24T09:54:21.052Z,31.61
2023-04-24T09:56:51.132Z,34.75
2023-04-24T09:59:20.792Z,34.35
2023-04-24T10:01:50.444Z,36.72
2023-04-24T10:04:20.575Z,36.78
2023-04-24T10:06:51.418Z,32.54
2023-04-24T10:09:21.023Z,33.82
2023-04-24T10:11:50.931Z,27.81
2023-04-24T10:14:21.720Z,34.46
2023-04-24T10:16:50.518Z,33.48
2023-04-24T10:19:20.204Z,32.20
2023-04-24T10:21:49.688Z,33.90
2023-04-24T10:24:19.006Z,35.31
2023-04-24T10:26:49.656Z,32.48
2023-04-24T10:29:22.546Z,31.42
2023-04-24T10:31:50.664Z,33.80
2023-04-24T10:34:23.059Z,34.78
2023-04-24T10:36:57.767Z,30.70
2023-04-24T10:39:27.875Z,35.86
2023-04-24T10:41:58.595Z,31.20
2023-04-24T10:44:27.897Z,33.88
2023-04-24T10:46:57.731Z,36.87
2023-04-24T10:49:31.971Z,35.17
2023-04-24T10:52:06.553Z,37.98
2023-04-24T10:54:39.095Z,41.09
2023-04-24T10:57:30.546Z,37.53
2023-04-24T11:00:20.707Z,38.19
2023-04-24T11:02:54.233Z,37.11
2023-04-24T11:05:23.204Z,34.76
2023-04-24T11:08:15.485Z,35.24
2023-04-24T11:10:46.701Z,37.00
2023-04-24T11:13:18.101Z,37.45
2023-04-24T11:15:46.146Z,37.56
2023-04-24T11:18:17.950Z,38.79
2023-04-24T11:20:46.631Z,39.42
2023-04-24T11:23:17.139Z,38.74
2023-04-24T11:25:45.233Z,37.38
2023-04-24T11:28:18.085Z,38.69
2023-04-24T11:30:46.028Z,35.38
2023-04-24T11:33:22.191Z,35.17
2023-04-24T11:35:50.662Z,34.54
2023-04-24T11:38:24.659Z,35.04
2023-04-24T11:40:54.356Z,35.98
2023-04-24T11:43:23.345Z,35.64
2023-04-24T11:45:52.172Z,38.45
2023-04-24T11:48:23.364Z,39.54
2023-04-24T11:50:51.768Z,38.22
2023-04-24T11:53:23.018Z,38.29
2023-04-24T11:55:51.078Z,39.66
2023-04-24T11:58:23.251Z,40.05
2023-04-24T12:00:58.656Z,42.84
2023-04-24T12:03:26.709Z,36.90
2023-04-24T12:05:55.258Z,37.09
2023-04-24T12:08:31.249Z,38.21
2023-04-24T12:11:00.415Z,37.66
2023-04-24T12:13:28.629Z,38.62
2023-04-24T12:15:56.942Z,37.73
2023-04-24T12:18:25.964Z,38.42
2023-04-24T12:20:54.526Z,37.97
2023-04-24T12:23:37.585Z,40.94
2023-04-24T12:26:06.315Z,38.34
2023-04-24T12:28:38.373Z,40.04
2023-04-24T12:31:06.897Z,40.19
2023-04-24T12:33:35.600Z,39.40
2023-04-24T12:36:03.993Z,40.33
2023-04-24T12:38:32.182Z,39.77
2023-04-24T12:41:09.101Z,40.51
2023-04-24T12:43:37.744Z,41.73
2023-04-24T12:46:06.197Z,40.99
2023-04-24T12:48:34.889Z,40.31
2023-04-24T12:51:02.926Z,39.51
2023-04-24T12:53:32.452Z,37.83
2023-04-24T12:56:00.475Z,40.79
2023-04-24T12:58:29.987Z,40.66
2023-04-24T13:00:57.989Z,41.34
2023-04-24T13:03:26.848Z,41.60
2023-04-24T13:05:54.817Z,43.36
2023-04-24T13:08:22.764Z,43.19
2023-04-24T13:10:52.093Z,42.43
2023-04-24T13:13:20.076Z,37.31
2023-04-24T13:15:49.372Z,37.14
2023-04-24T13:18:17.273Z,37.20
2023-04-24T13:20:45.214Z,40.01
2023-04-24T13:23:13.308Z,42.83
2023-04-24T13:25:41.351Z,41.14
2023-04-24T13:28:09.378Z,39.75
2023-04-24T13:30:37.505Z,41.83
2023-04-24T13:33:06.978Z,42.36
2023-04-24T13:35:34.936Z,38.30
2023-04-24T13:38:06.960Z,40.05
2023-04-24T13:40:35.365Z,37.95
2023-04-24T13:43:03.817Z,40.10
2023-04-24T13:45:31.752Z,37.68
2023-04-24T13:47:59.812Z,40.04
2023-04-24T13:50:29.168Z,38.80
2023-04-24T13:52:57.868Z,40.40
2023-04-24T13:55:25.825Z,39.46
2023-04-24T13:57:56.080Z,39.20
2023-04-24T14:00:24.640Z,38.58
2023-04-24T14:02:52.783Z,39.61
2023-04-24T14:05:22.756Z,43.27
2023-04-24T14:07:52.671Z,38.45
2023-04-24T14:10:20.676Z,38.89
2023-04-24T14:12:48.672Z,42.05
2023-04-24T14:15:16.720Z,41.85
2023-04-24T14:17:44.709Z,45.36
2023-04-24T14:20:14.343Z,47.06
2023-04-24T14:22:42.256Z,42.68
2023-04-24T14:25:11.856Z,47.15
2023-04-24T14:27:41.116Z,47.52
2023-04-24T14:30:10.281Z,39.68
2023-04-24T14:32:38.238Z,40.58
2023-04-24T14:35:07.212Z,43.12
2023-04-24T14:37:35.348Z,51.14
2023-04-24T14:40:29.418Z,38.95
2023-04-24T14:42:54.415Z,41.55
2023-04-24T14:45:22.314Z,45.76
2023-04-24T14:47:50.246Z,43.80
2023-04-24T14:50:18.187Z,44.97
2023-04-24T14:52:46.156Z,45.05
2023-04-24T14:55:14.604Z,46.47
2023-04-24T14:57:42.828Z,49.21
2023-04-24T15:00:13.372Z,53.14
2023-04-24T15:02:43.113Z,45.18
2023-04-24T15:05:11.720Z,45.27
2023-04-24T15:07:40.233Z,49.32
2023-04-24T15:10:09.280Z,48.37
2023-04-24T15:12:37.511Z,52.26
2023-04-24T15:15:07.938Z,59.13
2023-04-24T15:17:37.353Z,58.55
2023-04-24T15:20:07.394Z,57.46
2023-04-24T15:22:35.588Z,56.71
2023-04-24T15:25:03.807Z,58.64
2023-04-24T15:27:42.190Z,58.31
2023-04-24T15:30:11.562Z,53.61
2023-04-24T15:32:41.054Z,55.13
2023-04-24T15:35:10.578Z,54.67
2023-04-24T15:37:38.988Z,55.29
2023-04-24T15:40:08.779Z,56.59
2023-04-24T15:42:36.962Z,54.73
2023-04-24T15:45:05.500Z,56.29
2023-04-24T15:47:34.820Z,55.30
2023-04-24T15:50:04.640Z,56.04
2023-04-24T15:52:32.609Z,58.04
2023-04-24T15:55:00.715Z,58.82
2023-04-24T15:57:28.653Z,60.92
2023-04-24T15:59:56.769Z,62.80
2023-04-24T16:02:25.083Z,67.16
2023-04-24T16:04:53.710Z,65.40
2023-04-24T16:07:23.123Z,64.39
2023-04-24T16:09:51.038Z,65.10
2023-04-24T16:12:19.035Z,67.53
2023-04-24T16:14:47.101Z,66.85
2023-04-24T16:17:15.058Z,69.97
2023-04-24T16:19:43.181Z,72.59
2023-04-24T16:22:11.124Z,72.55
2023-04-24T16:24:40.416Z,73.07
2023-04-24T16:27:08.362Z,70.74
2023-04-24T16:29:36.276Z,71.33
2023-04-24T16:32:04.280Z,73.14
2023-04-24T16:34:32.186Z,75.01
2023-04-24T16:37:00.671Z,71.06
2023-04-24T16:39:28.767Z,73.46
2023-04-24T16:41:59.768Z,73.34
2023-04-24T16:44:28.253Z,74.13
2023-04-24T16:46:56.938Z,74.68
2023-04-24T16:49:25.116Z,75.91
2023-04-24T16:51:53.096Z,76.74
2023-04-24T16:54:21.023Z,76.33
2023-04-24T16:56:48.981Z,74.68
2023-04-24T16:59:18.276Z,75.99
2023-04-24T17:01:46.224Z,75.58
2023-04-24T17:04:14.290Z,75.10
2023-04-24T17:06:42.327Z,74.99
2023-04-24T17:09:12.195Z,71.85
2023-04-24T17:11:40.205Z,70.88
2023-04-24T17:14:08.121Z,69.28
2023-04-24T17:16:38.520Z,70.83
2023-04-24T17:19:06.991Z,71.17
2023-04-24T17:21:35.054Z,71.56
2023-04-24T17:24:03.097Z,73.09
2023-04-24T17:26:32.385Z,73.25
2023-04-24T17:29:00.443Z,74.94
2023-04-24T17:31:28.394Z,70.75
2023-04-24T17:33:57.979Z,74.07
2023-04-24T17:36:25.934Z,75.06
2023-04-24T17:38:53.899Z,75.16
2023-04-24T17:41:21.817Z,77.17
2023-04-24T17:43:49.759Z,78.59
2023-04-24T17:46:17.772Z,79.30
2023-04-24T17:48:47.591Z,77.61
2023-04-24T17:51:18.275Z,74.92
2023-04-24T17:53:46.189Z,78.03
2023-04-24T17:56:14.141Z,80.26
2023-04-24T17:58:42.101Z,82.67
2023-04-24T18:01:10.072Z,83.42
2023-04-24T18:03:38.524Z,84.01
2023-04-24T18:06:07.429Z,83.26
2023-04-24T18:08:36.795Z,85.05
2023-04-24T18:11:04.798Z,83.06
2023-04-24T18:13:32.781Z,83.90
2023-04-24T18:16:00.778Z,82.85
2023-04-24T18:18:28.703Z,83.95
2023-04-24T18:20:56.747Z,85.41
2023-04-24T18:23:24.685Z,85.44
2023-04-24T18:25:54.017Z,80.29
2023-04-24T18:28:21.930Z,79.79
2023-04-24T18:30:49.861Z,80.25
2023-04-24T18:33:19.085Z,80.39
2023-04-24T18:35:47.032Z,82.05
2023-04-24T18:38:14.974Z,81.58
2023-04-24T18:40:43.403Z,82.11
2023-04-24T18:43:12.726Z,85.31
2023-04-24T18:45:40.638Z,86.73
2023-04-24T18:48:08.685Z,86.26
2023-04-24T18:50:38.928Z,85.43
2023-04-24T18:53:07.268Z,84.06
2023-04-24T18:55:36.006Z,83.09
2023-04-24T18:58:03.987Z,82.32
2023-04-24T19:00:33.433Z,81.58
2023-04-24T19:03:01.613Z,82.63
2023-04-24T19:05:29.560Z,83.34
2023-04-24T19:07:57.450Z,83.83
2023-04-24T19:10:25.469Z,82.60
2023-04-24T19:12:56.644Z,82.47
2023-04-24T19:15:25.043Z,83.50
2023-04-24T19:17:54.360Z,84.44
2023-04-24T19:20:22.402Z,85.42
2023-04-24T19:22:50.366Z,85.74
2023-04-24T19:25:18.415Z,85.36
2023-04-24T19:27:46.368Z,84.03
2023-04-24T19:30:14.636Z,85.32
2023-04-24T19:32:42.543Z,85.90
2023-04-24T19:35:11.927Z,86.78
2023-04-24T19:37:40.121Z,87.91
2023-04-24T19:40:09.482Z,87.90
2023-04-24T19:45:11.161Z,87.83
2023-04-24T19:47:39.160Z,88.75
2023-04-24T19:50:08.554Z,88.64
2023-04-24T19:52:37.834Z,87.34
2023-04-24T19:55:06.178Z,88.55
2023-04-24T19:57:34.106Z,87.35
2023-04-24T20:00:02.048Z,87.64
2023-04-24T20:02:30.025Z,86.82
2023-04-24T20:04:58.090Z,87.58
2023-04-24T20:07:26.355Z,87.24
2023-04-24T20:09:55.674Z,87.49
2023-04-24T20:12:23.772Z,87.00
2023-04-24T20:14:51.880Z,87.11
2023-04-24T20:17:19.987Z,87.85
2023-04-24T20:19:47.996Z,86.82
2023-04-24T20:22:16.109Z,86.94
2023-04-24T20:24:44.584Z,87.22
2023-04-24T20:27:14.608Z,88.73
2023-04-24T20:29:42.742Z,88.30
2023-04-24T20:32:10.867Z,88.94
2023-04-24T20:34:38.845Z,91.07
2023-04-24T20:37:06.800Z,92.71
2023-04-24T20:39:34.743Z,95.33
2023-04-24T20:42:02.708Z,97.31
2023-04-24T20:44:32.055Z,96.95
2023-04-24T20:47:00.089Z,98.06
2023-04-24T20:49:28.270Z,99.11
2023-04-24T20:51:56.344Z,100.00
2023-04-24T20:54:24.245Z,100.00
2023-04-24T20:56:52.289Z,100.00
2023-04-24T20:59:20.216Z,98.28
2023-04-24T21:01:50.769Z,98.71
2023-04-24T21:04:18.826Z,97.06
2023-04-24T21:06:47.825Z,95.90
2023-04-24T21:09:15.755Z,97.56
2023-04-24T21:11:43.724Z,95.38
2023-04-24T21:14:11.679Z,96.38
2023-04-24T21:16:39.675Z,98.00
2023-04-24T21:19:08.975Z,98.30
2023-04-24T21:21:36.936Z,100.00
2023-04-24T21:24:05.170Z,99.42
2023-04-24T21:26:33.376Z,99.19
2023-04-24T21:29:01.312Z,99.25
2023-04-24T21:31:29.310Z,100.00
2023-04-24T21:33:57.226Z,100.00
2023-04-24T21:36:26.869Z,100.00
2023-04-24T21:38:55.446Z,100.00
2023-04-24T21:41:24.728Z,100.00
2023-04-24T21:43:52.956Z,100.00
2023-04-24T21:46:21.214Z,100.00
2023-04-24T21:48:49.165Z,100.00
2023-04-24T21:51:18.100Z,99.88
2023-04-24T21:53:47.699Z,99.73
2023-04-24T21:56:15.808Z,99.78
2023-04-24T21:58:44.018Z,100.00
2023-04-24T22:01:12.168Z,99.89
2023-04-24T22:03:40.245Z,99.79
2023-04-24T22:06:08.459Z,99.25
2023-04-24T22:08:36.483Z,100.00
2023-04-24T22:11:13.559Z,99.35
2023-04-24T22:13:48.371Z,99.73
2023-04-24T22:16:17.047Z,99.24
2023-04-24T22:18:47.571Z,98.88
2023-04-24T22:21:16.092Z,98.70
2023-04-24T22:23:44.026Z,98.38
2023-04-24T22:26:13.505Z,98.57
2023-04-24T22:28:41.400Z,98.47
2023-04-24T22:31:09.679Z,97.57
2023-04-24T22:33:37.721Z,97.61
2023-04-24T22:36:05.978Z,98.83
2023-04-24T22:38:34.028Z,98.25
2023-04-24T22:41:02.300Z,99.26
2023-04-24T22:43:31.862Z,100.00
2023-04-24T22:45:59.763Z,100.00
2023-04-24T22:48:27.691Z,99.58
2023-04-24T22:50:56.097Z,98.14
2023-04-24T22:53:24.247Z,98.39
2023-04-24T22:55:52.250Z,98.56
2023-04-24T22:58:20.370Z,99.94
2023-04-24T23:00:49.704Z,99.29
2023-04-24T23:03:17.838Z,99.10
2023-04-24T23:05:45.854Z,99.22
2023-04-24T23:08:13.810Z,100.00
2023-04-24T23:10:42.192Z,100.00
2023-04-24T23:13:10.115Z,100.00
2023-04-24T23:15:39.442Z,100.00
2023-04-24T23:18:08.799Z,100.00
2023-04-24T23:20:37.599Z,100.00
2023-04-24T23:23:05.684Z,100.00
2023-04-24T23:25:33.953Z,100.00
2023-04-24T23:28:01.839Z,100.00
2023-04-24T23:30:29.918Z,100.00
2023-04-24T23:32:57.938Z,100.00
2023-04-24T23:35:27.376Z,100.00
2023-04-24T23:37:56.258Z,100.00
2023-04-24T23:40:24.425Z,100.00
2023-04-24T23:43:05.658Z,100.00
2023-04-24T23:45:35.704Z,100.00
2023-04-24T23:48:04.209Z,100.00
2023-04-24T23:50:33.619Z,100.00
2023-04-24T23:53:01.676Z,100.00
2023-04-24T23:55:29.652Z,100.00
2023-04-24T23:57:57.601Z,100.00
